Time;durP1;ratioP1;P1;durP2;ratioP2;P2;SDS_P1;SDS_P2;PMS_P1;PMS_P2;Temp;Humidity;BMP_temperature;BMP_pressure;BME280_temperature;BME280_humidity;BME280_pressure;Samples;Min_cycle;Max_cycle;Signal;HPM_P1;HPM_P2
2022/03/29 00:02:07;;;;;;;;;;;;;;;11.53;45.80;97716.73;1689519;84;20243;-82
2022/03/29 00:04:33;;;;;;;;;;;;;;;11.49;45.89;97715.34;1697086;84;24926;-82
2022/03/29 00:07:05;;;;;;;;;;;;;;;11.49;46.01;97712.73;1691663;84;22759;-84
2022/03/29 00:09:31;;;;;;;;;;;;;;;11.45;46.10;97708.72;1692044;84;26047;-83
2022/03/29 00:11:58;;;;;;;;;;;;;;;11.38;46.24;97701.84;1688576;84;20256;-83
2022/03/29 00:14:24;;;;;;;;;;;;;;;11.34;46.33;97700.45;1697198;84;20687;-82
2022/03/29 00:16:50;;;;;;;;;;;;;;;11.35;46.48;97692.13;1692124;83;20213;-83
2022/03/29 00:19:16;;;;;;;;;;;;;;;11.38;46.59;97686.61;1694902;84;20353;-82
2022/03/29 00:21:42;;;;;;;;;;;;;;;11.39;46.73;97693.52;1692459;82;26704;-82
2022/03/29 00:24:08;;;;;;;;;;;;;;;11.42;46.87;97691.45;1685516;84;24462;-82
2022/03/29 00:26:34;;;;;;;;;;;;;;;11.45;47.00;97686.44;1691021;83;20310;-82
2022/03/29 00:29:00;;;;;;;;;;;;;;;11.50;47.15;97683.78;1691379;84;20486;-82
2022/03/29 00:31:26;;;;;;;;;;;;;;;11.54;47.26;97683.03;1691576;84;21748;-82
2022/03/29 00:33:52;;;;;;;;;;;;;;;11.54;47.34;97675.17;1694259;83;21146;-82
2022/03/29 00:36:18;;;;;;;;;;;;;;;11.57;47.44;97676.20;1693281;83;24471;-82
2022/03/29 00:38:49;;;;;;;;;;;;;;;11.63;47.57;97673.89;1694571;83;20581;-82
2022/03/29 00:41:15;;;;;;;;;;;;;;;11.68;47.67;97676.11;1693493;82;24780;-82
2022/03/29 00:43:41;;;;;;;;;;;;;;;11.68;47.77;97668.24;1697640;83;21981;-82
2022/03/29 00:46:07;;;;;;;;;;;;;;;11.70;47.87;97687.30;1692513;83;26038;-81
2022/03/29 00:48:34;;;;;;;;;;;;;;;11.61;47.95;97737.89;1688936;84;24506;-81
2022/03/29 00:51:00;;;;;;;;;;;;;;;11.47;48.16;97755.25;1696338;84;20239;-81
2022/03/29 00:53:26;;;;;;;;;;;;;;;11.41;48.27;97747.42;1694543;84;24755;-81
2022/03/29 00:55:54;;;;;;;;;;;;;;;11.42;48.34;97734.67;1692523;83;22056;-81
2022/03/29 00:58:20;;;;;;;;;;;;;;;11.46;48.40;97728.69;1692831;84;26016;-81
2022/03/29 01:00:47;;;;;;;;;;;;;;;11.48;48.50;97728.09;1691279;84;24475;-81
2022/03/29 01:03:16;;;;;;;;;;;;;;;11.50;48.59;97711.30;1693364;83;20150;-82
2022/03/29 01:05:42;;;;;;;;;;;;;;;11.57;48.68;97708.95;1691499;84;25680;-81
2022/03/29 01:08:08;;;;;;;;;;;;;;;11.62;48.79;97711.53;1691633;83;21932;-82
2022/03/29 01:10:35;;;;;;;;;;;;;;;11.65;48.87;97699.97;1696273;83;26236;-81
2022/03/29 01:13:01;;;;;;;;;;;;;;;11.68;48.93;97691.36;1690167;83;24482;-81
2022/03/29 01:15:29;;;;;;;;;;;;;;;11.69;49.04;97702.19;1690588;83;20341;-82
2022/03/29 01:17:57;;;;;;;;;;;;;;;11.69;49.10;97707.44;1697913;83;24781;-81
2022/03/29 01:20:25;;;;;;;;;;;;;;;11.70;49.17;97699.09;1698492;83;22216;-81
2022/03/29 01:22:52;;;;;;;;;;;;;;;11.70;49.25;97700.41;1701525;83;26211;-82
2022/03/29 01:25:29;;;;;;;;;;;;;;;11.70;49.37;97703.02;1702327;84;24507;-82
2022/03/29 01:27:55;;;;;;;;;;;;;;;11.71;49.45;97700.28;1698514;83;20255;-81
2022/03/29 01:30:21;;;;;;;;;;;;;;;11.72;49.55;97690.63;1702769;84;20374;-81
2022/03/29 01:32:49;;;;;;;;;;;;;;;11.71;49.63;97691.11;1700988;84;21989;-82
2022/03/29 01:35:20;;;;;;;;;;;;;;;11.75;49.74;97698.25;1700699;83;25999;-81
2022/03/29 01:37:46;;;;;;;;;;;;;;;11.76;49.85;97684.19;1702550;84;25236;-81
2022/03/29 01:40:15;;;;;;;;;;;;;;;11.83;49.96;97687.94;1697582;84;20328;-81
2022/03/29 01:42:42;;;;;;;;;;;;;;;11.87;50.08;97681.94;1699213;83;24737;-81
2022/03/29 01:45:09;;;;;;;;;;;;;;;11.91;50.19;97672.84;1699300;82;22104;-81
2022/03/29 01:47:36;;;;;;;;;;;;;;;11.90;50.29;97654.96;1703785;83;25973;-81
2022/03/29 01:50:02;;;;;;;;;;;;;;;11.92;50.37;97656.98;1703149;83;24612;-81
2022/03/29 01:52:29;;;;;;;;;;;;;;;11.93;50.43;97653.40;1702414;84;20393;-82
2022/03/29 01:54:56;;;;;;;;;;;;;;;11.96;50.52;97650.97;1697279;84;24800;-82
2022/03/29 01:57:26;;;;;;;;;;;;;;;11.93;50.57;97648.63;1695584;84;22143;-82
2022/03/29 02:02:36;;;;;;;;;;;;;;;11.84;50.71;97654.19;1697672;84;24459;-81
2022/03/29 02:05:03;;;;;;;;;;;;;;;11.77;50.80;97642.59;1698183;84;20219;-82
2022/03/29 02:07:30;;;;;;;;;;;;;;;11.71;50.92;97645.23;1697977;84;24762;-82
2022/03/29 02:09:56;;;;;;;;;;;;;;;11.72;51.04;97644.28;1701401;82;22036;-83
2022/03/29 02:12:22;;;;;;;;;;;;;;;11.69;51.18;97647.63;1704171;84;26714;-83
2022/03/29 02:14:48;;;;;;;;;;;;;;;11.65;51.26;97642.31;1696305;84;20868;-83
2022/03/29 02:17:22;;;;;;;;;;;;;;;11.61;51.33;97642.23;1705055;84;20732;-84
2022/03/29 02:19:49;;;;;;;;;;;;;;;11.56;51.43;97641.33;1696053;82;24828;-84
2022/03/29 02:22:15;;;;;;;;;;;;;;;11.54;51.54;97639.31;1698163;84;22103;-83
2022/03/29 02:24:42;;;;;;;;;;;;;;;11.51;51.66;97630.90;1702914;84;21111;-82
2022/03/29 02:27:08;;;;;;;;;;;;;;;11.52;51.81;97633.84;1701282;84;24585;-83
2022/03/29 02:29:40;;;;;;;;;;;;;;;11.51;51.93;97630.39;1696601;84;20281;-83
2022/03/29 02:32:07;;;;;;;;;;;;;;;11.48;52.06;97631.14;1699947;82;25009;-83
2022/03/29 02:34:33;;;;;;;;;;;;;;;11.43;52.17;97628.09;1700297;84;22047;-83
2022/03/29 02:36:58;;;;;;;;;;;;;;;11.40;52.32;97634.92;1700432;83;20924;-82
2022/03/29 02:39:24;;;;;;;;;;;;;;;11.37;52.44;97637.78;1695790;83;20253;-82
2022/03/29 02:41:53;;;;;;;;;;;;;;;11.37;52.57;97632.07;1698177;83;20170;-82
2022/03/29 02:44:19;;;;;;;;;;;;;;;11.40;52.76;97634.92;1698139;84;25489;-82
2022/03/29 02:46:45;;;;;;;;;;;;;;;11.41;52.90;97633.94;1700843;83;21968;-82
2022/03/29 02:49:11;;;;;;;;;;;;;;;11.39;53.03;97631.47;1699090;84;26019;-82
2022/03/29 02:51:40;;;;;;;;;;;;;;;11.38;53.18;97625.88;1692052;84;25253;-82
2022/03/29 02:54:06;;;;;;;;;;;;;;;11.38;53.31;97626.35;1691906;84;20250;-82
2022/03/29 02:56:32;;;;;;;;;;;;;;;11.37;53.46;97617.66;1694642;82;20236;-82
2022/03/29 02:59:01;;;;;;;;;;;;;;;11.38;53.59;97621.11;1699680;84;20221;-82
2022/03/29 03:01:30;;;;;;;;;;;;;;;11.37;53.71;97620.76;1697536;83;26759;-82
2022/03/29 03:03:57;;;;;;;;;;;;;;;11.39;53.83;97625.39;1696880;84;24427;-82
2022/03/29 03:06:24;;;;;;;;;;;;;;;11.38;53.93;97619.80;1695566;84;20492;-82
2022/03/29 03:08:52;;;;;;;;;;;;;;;11.36;54.02;97613.86;1697135;84;24750;-83
2022/03/29 03:11:18;;;;;;;;;;;;;;;11.33;54.11;97612.34;1695628;84;22048;-82
2022/03/29 03:13:44;;;;;;;;;;;;;;;11.30;54.24;97603.42;1700104;84;20966;-82
2022/03/29 03:16:10;;;;;;;;;;;;;;;11.27;54.35;97599.77;1697542;84;20421;-83
2022/03/29 03:18:36;;;;;;;;;;;;;;;11.24;54.49;97603.47;1682640;84;20823;-82
2022/03/29 03:21:02;;;;;;;;;;;;;;;11.26;54.61;97604.17;1666672;84;24768;-82
2022/03/29 03:23:28;;;;;;;;;;;;;;;11.30;54.77;97600.80;1659509;85;22067;-82
2022/03/29 03:25:54;;;;;;;;;;;;;;;11.29;54.88;97598.66;1662490;85;25988;-83
2022/03/29 03:28:20;;;;;;;;;;;;;;;11.24;54.97;97591.69;1661666;85;20312;-83
2022/03/29 03:30:46;;;;;;;;;;;;;;;11.23;55.08;97587.91;1658814;85;20203;-82
2022/03/29 03:33:12;;;;;;;;;;;;;;;11.20;55.20;97578.51;1661723;85;20320;-82
2022/03/29 03:35:38;;;;;;;;;;;;;;;11.19;55.33;97576.84;1650624;85;20241;-82
2022/03/29 03:38:07;;;;;;;;;;;;;;;11.15;55.48;97566.30;1658776;85;21040;-83
2022/03/29 03:40:41;;;;;;;;;;;;;;;11.11;55.58;97570.14;1661364;85;24475;-82
2022/03/29 03:43:07;;;;;;;;;;;;;;;11.07;55.71;97571.38;1656158;85;20166;-82
2022/03/29 03:45:35;;;;;;;;;;;;;;;11.05;55.83;97569.36;1667923;85;24867;-82
2022/03/29 03:48:04;;;;;;;;;;;;;;;11.02;55.97;97570.91;1655908;85;22154;-82
2022/03/29 03:50:30;;;;;;;;;;;;;;;10.97;56.09;97578.33;1655150;85;26158;-82
2022/03/29 03:52:57;;;;;;;;;;;;;;;10.92;56.23;97576.59;1655415;85;25256;-82
2022/03/29 03:55:24;;;;;;;;;;;;;;;10.86;56.37;97574.48;1656445;85;20250;-82
2022/03/29 03:57:50;;;;;;;;;;;;;;;10.78;56.51;97567.77;1655157;85;24839;-82
2022/03/29 04:00:17;;;;;;;;;;;;;;;10.74;56.64;97571.61;1658992;85;20312;-82
2022/03/29 04:02:43;;;;;;;;;;;;;;;10.69;56.76;97564.13;1658193;85;25884;-82
2022/03/29 04:05:12;;;;;;;;;;;;;;;10.66;56.90;97563.56;1657372;85;24501;-82
2022/03/29 04:07:37;;;;;;;;;;;;;;;10.64;57.05;97574.15;1655277;85;20183;-82
2022/03/29 04:10:03;;;;;;;;;;;;;;;10.60;57.22;97579.30;1662874;85;20233;-82
2022/03/29 04:12:29;;;;;;;;;;;;;;;10.51;57.42;97582.69;1647283;85;21922;-82
2022/03/29 04:14:55;;;;;;;;;;;;;;;10.46;57.58;97577.02;1659303;85;20907;-82
2022/03/29 04:17:22;;;;;;;;;;;;;;;10.42;57.74;97575.59;1657458;85;25054;-82
2022/03/29 04:19:49;;;;;;;;;;;;;;;10.38;57.90;97578.11;1687183;82;20543;-82
2022/03/29 04:22:18;;;;;;;;;;;;;;;10.33;58.11;97577.19;1699817;83;24968;-82
2022/03/29 04:24:43;;;;;;;;;;;;;;;10.31;58.30;97573.06;1699654;84;22061;-82
2022/03/29 04:27:09;;;;;;;;;;;;;;;10.32;58.49;97569.46;1698266;82;21122;-82
2022/03/29 04:29:35;;;;;;;;;;;;;;;10.28;58.67;97568.89;1679562;83;20401;-82
2022/03/29 04:32:01;;;;;;;;;;;;;;;10.25;58.90;97561.80;1697893;82;20343;-82
2022/03/29 04:34:27;;;;;;;;;;;;;;;10.22;59.08;97568.56;1698498;82;20329;-82
2022/03/29 04:36:53;;;;;;;;;;;;;;;10.18;59.25;97557.54;1701037;84;20205;-84
2022/03/29 04:39:19;;;;;;;;;;;;;;;10.16;59.45;97564.67;1703104;82;20970;-84
2022/03/29 04:41:44;;;;;;;;;;;;;;;10.15;59.64;97569.50;1702890;84;20449;-84
2022/03/29 04:44:15;;;;;;;;;;;;;;;10.08;59.81;97560.53;1699603;84;20811;-84
2022/03/29 04:46:42;;;;;;;;;;;;;;;10.00;60.02;97562.45;1699825;84;24211;-84
2022/03/29 04:49:09;;;;;;;;;;;;;;;9.87;60.09;97555.23;1703044;83;22056;-83
2022/03/29 04:51:35;;;;;;;;;;;;;;;9.79;60.24;97553.73;1700055;84;20974;-83
2022/03/29 04:54:01;;;;;;;;;;;;;;;9.79;60.47;97558.12;1699080;83;24501;-82
2022/03/29 04:56:30;;;;;;;;;;;;;;;9.78;60.77;97559.91;1697811;84;20473;-83
2022/03/29 04:58:56;;;;;;;;;;;;;;;9.73;60.98;97558.62;1696799;84;25477;-81
2022/03/29 05:01:22;;;;;;;;;;;;;;;9.71;61.19;97559.23;1703462;84;22089;-82
2022/03/29 05:03:48;;;;;;;;;;;;;;;9.72;61.50;97563.48;1704556;83;26241;-83
2022/03/29 05:06:14;;;;;;;;;;;;;;;9.72;61.85;97568.70;1700038;83;24716;-84
2022/03/29 05:08:40;;;;;;;;;;;;;;;9.76;62.12;97567.06;1698460;84;20166;-84
2022/03/29 05:11:06;;;;;;;;;;;;;;;9.79;62.43;97572.50;1701079;83;20229;-83
2022/03/29 05:13:33;;;;;;;;;;;;;;;9.81;62.71;97574.05;1699942;84;20277;-83
2022/03/29 05:15:59;;;;;;;;;;;;;;;9.85;62.90;97571.53;1701432;83;25945;-83
2022/03/29 05:18:25;;;;;;;;;;;;;;;9.87;63.16;97585.80;1705645;84;20920;-83
2022/03/29 05:20:51;;;;;;;;;;;;;;;9.85;63.29;97595.53;1701621;83;20320;-83
2022/03/29 05:23:17;;;;;;;;;;;;;;;9.81;63.36;97600.18;1702122;83;25399;-83
2022/03/29 05:25:43;;;;;;;;;;;;;;;9.81;63.45;97596.73;1698977;84;21976;-83
2022/03/29 05:28:09;;;;;;;;;;;;;;;9.86;63.63;97588.05;1704159;83;25992;-83
2022/03/29 05:30:35;;;;;;;;;;;;;;;9.92;63.81;97591.48;1699288;84;20272;-83
2022/03/29 05:33:02;;;;;;;;;;;;;;;9.98;64.00;97600.13;1695705;83;20275;-83
2022/03/29 05:35:33;;;;;;;;;;;;;;;10.08;64.18;97604.97;1703623;82;24753;-83
2022/03/29 05:38:02;;;;;;;;;;;;;;;10.16;64.33;97606.50;1702813;83;22082;-83
2022/03/29 05:40:28;;;;;;;;;;;;;;;10.21;64.47;97609.56;1697895;83;26859;-83
2022/03/29 05:42:55;;;;;;;;;;;;;;;10.25;64.61;97607.08;1699114;83;24674;-82
2022/03/29 05:45:21;;;;;;;;;;;;;;;10.29;64.71;97610.27;1702404;83;20222;-83
2022/03/29 05:50:32;;;;;;;;;;;;;;;10.37;64.85;97617.81;1697900;84;22667;-83
2022/03/29 05:53:01;;;;;;;;;;;;;;;10.45;65.01;97624.58;1698384;84;20964;-84
2022/03/29 05:55:28;;;;;;;;;;;;;;;10.46;65.11;97621.01;1701477;83;25279;-84
2022/03/29 05:57:54;;;;;;;;;;;;;;;10.49;65.20;97615.98;1701823;84;20265;-84
2022/03/29 06:00:23;;;;;;;;;;;;;;;10.51;65.35;97615.87;1702461;84;24809;-83
2022/03/29 06:02:50;;;;;;;;;;;;;;;10.58;65.53;97618.34;1701860;84;21972;-82
2022/03/29 06:05:16;;;;;;;;;;;;;;;10.64;65.69;97619.11;1700295;84;25999;-82
2022/03/29 06:07:42;;;;;;;;;;;;;;;10.67;65.72;97613.16;1698791;84;24547;-82
2022/03/29 06:10:09;;;;;;;;;;;;;;;10.72;65.77;97618.01;1700133;84;20303;-82
2022/03/29 06:12:38;;;;;;;;;;;;;;;10.75;65.81;97624.28;1698729;84;24759;-82
2022/03/29 06:15:06;;;;;;;;;;;;;;;10.77;65.90;97627.13;1699209;84;21965;-82
2022/03/29 06:17:34;;;;;;;;;;;;;;;10.84;66.05;97624.84;1676299;84;21225;-82
2022/03/29 06:20:03;;;;;;;;;;;;;;;10.90;66.14;97624.33;1698852;83;24455;-82
2022/03/29 06:22:31;;;;;;;;;;;;;;;10.95;66.12;97612.16;1698183;84;20224;-82
2022/03/29 06:24:58;;;;;;;;;;;;;;;11.00;66.13;97609.50;1703094;84;24769;-82
2022/03/29 06:27:25;;;;;;;;;;;;;;;11.07;66.19;97610.66;1707089;82;21940;-81
2022/03/29 06:29:56;;;;;;;;;;;;;;;11.18;66.27;97613.16;1700558;84;25964;-83
2022/03/29 06:32:21;;;;;;;;;;;;;;;11.24;66.31;97616.56;1701944;83;24424;-83
2022/03/29 06:34:47;;;;;;;;;;;;;;;11.30;66.32;97614.73;1700674;84;20240;-83
2022/03/29 06:37:13;;;;;;;;;;;;;;;11.39;66.31;97609.68;1701140;84;20257;-83
2022/03/29 06:39:40;;;;;;;;;;;;;;;11.47;66.42;97607.21;1703602;84;21971;-83
2022/03/29 06:42:06;;;;;;;;;;;;;;;11.51;66.43;97609.42;1696687;84;26046;-83
2022/03/29 06:44:33;;;;;;;;;;;;;;;11.53;66.37;97611.44;1696953;83;24389;-83
2022/03/29 06:47:00;;;;;;;;;;;;;;;11.59;66.32;97606.98;1701808;82;20429;-83
2022/03/29 06:49:26;;;;;;;;;;;;;;;11.64;66.31;97599.55;1696209;84;24761;-83
2022/03/29 06:51:52;;;;;;;;;;;;;;;11.68;66.34;97597.48;1700672;84;21967;-83
2022/03/29 06:54:18;;;;;;;;;;;;;;;11.74;66.45;97584.70;1701542;83;26062;-82
2022/03/29 06:56:44;;;;;;;;;;;;;;;11.84;66.57;97593.89;1700051;84;20233;-82
2022/03/29 06:59:10;;;;;;;;;;;;;;;11.87;66.58;97580.52;1703600;84;20292;-82
2022/03/29 07:01:36;;;;;;;;;;;;;;;11.92;66.60;97585.36;1697125;84;20236;-83
2022/03/29 07:04:03;;;;;;;;;;;;;;;11.95;66.59;97588.52;1700628;84;21904;-83
2022/03/29 07:06:33;;;;;;;;;;;;;;;11.98;66.58;97587.44;1697515;84;26413;-82
2022/03/29 07:11:45;;;;;;;;;;;;;;;11.99;66.60;97583.38;1702225;84;20228;-84
2022/03/29 07:14:14;;;;;;;;;;;;;;;11.99;66.84;97561.56;1703296;84;25524;-83
2022/03/29 07:16:41;;;;;;;;;;;;;;;11.86;67.26;97559.20;1699860;84;22010;-82
2022/03/29 07:19:10;;;;;;;;;;;;;;;11.80;68.03;97581.19;1701428;83;26040;-83
2022/03/29 07:21:39;;;;;;;;;;;;;;;11.70;68.72;97589.02;1653252;84;25176;-83
2022/03/29 07:24:06;;;;;;;;;;;;;;;11.70;69.28;97585.08;1685527;84;20322;-83
2022/03/29 07:26:32;;;;;;;;;;;;;;;11.68;69.84;97594.86;1684838;84;24764;-82
2022/03/29 07:28:58;;;;;;;;;;;;;;;11.70;70.67;97605.57;1685940;84;21816;-82
2022/03/29 07:31:24;;;;;;;;;;;;;;;11.67;71.34;97607.13;1679941;84;26043;-84
2022/03/29 07:33:50;;;;;;;;;;;;;;;11.74;72.01;97608.29;1681308;84;24424;-83
2022/03/29 07:36:18;;;;;;;;;;;;;;;11.83;72.69;97607.16;1677243;84;20238;-83
2022/03/29 07:38:47;;;;;;;;;;;;;;;11.88;73.32;97608.88;1682592;84;24724;-83
2022/03/29 07:41:12;;;;;;;;;;;;;;;11.89;73.86;97608.73;1679441;84;22096;-83
2022/03/29 07:43:38;;;;;;;;;;;;;;;11.92;74.38;97608.47;1677353;84;25967;-83
2022/03/29 07:46:04;;;;;;;;;;;;;;;11.94;74.82;97605.25;1678113;84;25229;-83
2022/03/29 07:48:30;;;;;;;;;;;;;;;11.94;75.28;97606.55;1656461;84;20247;-83
2022/03/29 07:50:56;;;;;;;;;;;;;;;11.94;75.79;97608.34;1675219;84;24821;-83
2022/03/29 07:53:25;;;;;;;;;;;;;;;11.94;76.18;97601.31;1675314;84;21985;-82
2022/03/29 07:55:51;;;;;;;;;;;;;;;11.98;76.45;97606.63;1675360;84;25406;-82
2022/03/29 07:58:23;;;;;;;;;;;;;;;12.00;76.85;97604.67;1673461;84;24623;-82
2022/03/29 08:00:52;;;;;;;;;;;;;;;12.05;77.30;97601.19;1675124;84;20250;-82
2022/03/29 08:03:19;;;;;;;;;;;;;;;12.11;77.81;97595.84;1679300;84;24893;-82
2022/03/29 08:05:47;;;;;;;;;;;;;;;12.18;78.25;97594.34;1686856;85;22813;-83
2022/03/29 08:08:14;;;;;;;;;;;;;;;12.27;78.75;97595.33;1703595;83;25828;-82
2022/03/29 08:10:42;;;;;;;;;;;;;;;12.28;79.06;97596.96;1668988;85;24443;-82
2022/03/29 08:13:08;;;;;;;;;;;;;;;12.31;79.31;97594.08;1683624;83;20463;-83
2022/03/29 08:15:35;;;;;;;;;;;;;;;12.33;79.50;97595.58;1689302;84;24811;-82
2022/03/29 08:18:00;;;;;;;;;;;;;;;12.36;79.70;97594.02;1694917;84;21944;-83
2022/03/29 08:20:27;;;;;;;;;;;;;;;12.40;79.91;97595.86;1691606;84;25954;-83
2022/03/29 08:22:58;;;;;;;;;;;;;;;12.38;80.01;97594.68;1683189;84;24556;-83
2022/03/29 08:25:21;;;;;;;;;;;;;;;12.30;79.79;97591.94;1693537;84;20222;-83
2022/03/29 08:27:48;;;;;;;;;;;;;;;12.30;79.70;97595.04;1690697;84;24981;-83
2022/03/29 08:30:15;;;;;;;;;;;;;;;12.30;79.53;97593.73;1694452;84;21981;-83
2022/03/29 08:32:42;;;;;;;;;;;;;;;12.31;79.50;97588.34;1688606;83;26084;-82
2022/03/29 08:35:08;;;;;;;;;;;;;;;12.38;79.48;97585.50;1691838;84;24479;-82
2022/03/29 08:37:36;;;;;;;;;;;;;;;12.43;79.47;97584.63;1686933;84;20234;-82
2022/03/29 08:40:09;;;;;;;;;;;;;;;12.47;79.38;97582.05;1693286;83;24825;-82
2022/03/29 08:42:35;;;;;;;;;;;;;;;12.53;79.42;97583.30;1690605;84;22041;-83
2022/03/29 08:45:03;;;;;;;;;;;;;;;12.60;79.64;97588.30;1687658;84;25966;-83
2022/03/29 08:47:29;;;;;;;;;;;;;;;12.64;79.75;97584.94;1692925;84;24613;-82
2022/03/29 08:49:56;;;;;;;;;;;;;;;12.67;79.76;97580.70;1694969;83;20317;-82
2022/03/29 08:52:22;;;;;;;;;;;;;;;12.75;79.74;97582.16;1691506;83;25645;-83
2022/03/29 08:54:49;;;;;;;;;;;;;;;12.82;79.88;97573.55;1686778;84;20252;-82
2022/03/29 08:57:15;;;;;;;;;;;;;;;12.89;79.88;97579.07;1691807;84;26038;-82
2022/03/29 08:59:42;;;;;;;;;;;;;;;12.91;79.84;97571.89;1691586;84;24559;-83
2022/03/29 09:02:09;;;;;;;;;;;;;;;12.96;79.81;97567.86;1692654;84;20496;-83
2022/03/29 09:04:37;;;;;;;;;;;;;;;12.99;79.65;97574.12;1691537;84;25501;-83
2022/03/29 09:07:03;;;;;;;;;;;;;;;13.01;79.43;97571.37;1686846;84;21966;-83
2022/03/29 09:09:31;;;;;;;;;;;;;;;13.03;79.16;97566.81;1692065;84;21113;-83
2022/03/29 09:11:58;;;;;;;;;;;;;;;13.04;78.80;97562.39;1688585;84;25312;-82
2022/03/29 09:14:25;;;;;;;;;;;;;;;13.13;78.60;97563.69;1688857;84;20474;-81
2022/03/29 09:16:52;;;;;;;;;;;;;;;13.24;78.46;97563.52;1670591;84;23795;-82
2022/03/29 09:19:19;;;;;;;;;;;;;;;13.25;78.29;97569.11;1693155;84;21922;-82
2022/03/29 09:21:46;;;;;;;;;;;;;;;13.19;77.90;97563.12;1694834;82;25957;-81
2022/03/29 09:24:17;;;;;;;;;;;;;;;13.21;77.73;97558.53;1698353;84;24636;-81
2022/03/29 09:26:44;;;;;;;;;;;;;;;13.23;77.61;97557.08;1695545;84;20748;-82
2022/03/29 09:29:15;;;;;;;;;;;;;;;13.24;77.40;97552.17;1695318;83;24761;-82
2022/03/29 09:31:44;;;;;;;;;;;;;;;13.26;77.22;97554.14;1693622;84;21926;-82
2022/03/29 09:34:11;;;;;;;;;;;;;;;13.25;76.88;97548.58;1693935;84;26833;-82
2022/03/29 09:36:45;;;;;;;;;;;;;;;13.26;76.62;97547.58;1690371;83;25316;-83
2022/03/29 09:39:31;;;;;;;;;;;;;;;13.31;76.45;97542.22;1694491;84;20218;-81
2022/03/29 09:41:59;;;;;;;;;;;;;;;13.33;76.17;97541.61;1692082;82;24239;-81
2022/03/29 09:44:27;;;;;;;;;;;;;;;13.38;75.93;97535.91;1693520;83;21988;-82
2022/03/29 09:47:04;;;;;;;;;;;;;;;13.45;75.84;97539.61;1679208;83;26024;-81
2022/03/29 09:49:32;;;;;;;;;;;;;;;13.43;75.50;97542.86;1694599;84;25120;-82
2022/03/29 09:52:09;;;;;;;;;;;;;;;13.49;75.44;97543.59;1658377;85;20235;-82
2022/03/29 09:54:36;;;;;;;;;;;;;;;13.57;75.51;97545.02;1668948;85;25539;-82
2022/03/29 09:57:02;;;;;;;;;;;;;;;13.64;75.34;97539.48;1690605;84;22145;-82
2022/03/29 09:59:28;;;;;;;;;;;;;;;13.67;75.14;97533.95;1695134;84;26012;-81
2022/03/29 10:01:57;;;;;;;;;;;;;;;13.73;75.12;97530.73;1692710;84;24500;-82
2022/03/29 10:04:24;;;;;;;;;;;;;;;13.80;75.08;97529.65;1692270;84;20255;-82
2022/03/29 10:06:56;;;;;;;;;;;;;;;13.84;74.89;97531.00;1692505;84;24766;-82
2022/03/29 10:09:27;;;;;;;;;;;;;;;13.90;74.78;97528.26;1688975;83;21391;-82
2022/03/29 10:11:58;;;;;;;;;;;;;;;13.94;74.63;97525.17;1696031;84;25984;-82
2022/03/29 10:14:26;;;;;;;;;;;;;;;14.04;74.60;97527.72;1690632;83;24440;-83
2022/03/29 10:16:56;;;;;;;;;;;;;;;14.05;74.44;97528.06;1691048;84;20317;-82
2022/03/29 10:19:24;;;;;;;;;;;;;;;14.07;74.31;97530.86;1688858;83;25403;-82
2022/03/29 10:21:58;;;;;;;;;;;;;;;14.05;74.02;97520.17;1692993;83;21929;-81
2022/03/29 10:24:21;;;;;;;;;;;;;;;14.05;73.75;97517.54;1690762;84;27011;-82
2022/03/29 10:26:48;;;;;;;;;;;;;;;14.05;73.60;97509.65;1694205;84;24404;-83
2022/03/29 10:29:15;;;;;;;;;;;;;;;14.08;73.52;97503.58;1693965;83;20560;-82
2022/03/29 10:31:51;;;;;;;;;;;;;;;14.16;73.52;97502.84;1682316;83;24759;-82
2022/03/29 10:34:24;;;;;;;;;;;;;;;14.20;73.41;97494.48;1671204;83;22127;-82
2022/03/29 10:37:09;;;;;;;;;;;;;;;14.22;73.21;97495.66;1667797;83;26157;-82
2022/03/29 10:39:42;;;;;;;;;;;;;;;14.22;72.90;97505.69;1688200;83;24519;-82
2022/03/29 10:42:27;;;;;;;;;;;;;;;14.10;72.45;97511.33;1684432;83;20306;-82
2022/03/29 10:45:02;;;;;;;;;;;;;;;13.98;72.16;97509.42;1683213;83;24884;-81
2022/03/29 10:47:30;;;;;;;;;;;;;;;13.87;71.90;97504.87;1677798;83;22274;-81
2022/03/29 10:49:56;;;;;;;;;;;;;;;13.76;71.73;97468.62;1693843;84;26102;-81
2022/03/29 10:52:24;;;;;;;;;;;;;;;13.70;71.64;97493.36;1694263;84;24560;-82
2022/03/29 10:54:50;;;;;;;;;;;;;;;13.64;71.85;97496.10;1694645;84;20296;-81
2022/03/29 10:57:28;;;;;;;;;;;;;;;13.59;72.16;97494.41;1692638;84;25455;-81
2022/03/29 10:59:58;;;;;;;;;;;;;;;13.52;72.27;97497.31;1695396;84;22011;-82
2022/03/29 11:02:23;;;;;;;;;;;;;;;13.38;72.30;97486.80;1687178;84;26132;-82
2022/03/29 11:05:08;;;;;;;;;;;;;;;13.33;72.26;97482.48;1691084;84;24432;-82
2022/03/29 11:07:35;;;;;;;;;;;;;;;13.32;72.30;97470.80;1692881;84;20166;-82
2022/03/29 11:10:09;;;;;;;;;;;;;;;13.36;72.52;97472.17;1691172;84;24534;-82
2022/03/29 11:12:43;;;;;;;;;;;;;;;13.37;72.57;97462.80;1690395;83;22204;-82
2022/03/29 11:15:07;;;;;;;;;;;;;;;13.46;72.79;97467.67;1693383;84;26101;-82
2022/03/29 11:17:36;;;;;;;;;;;;;;;13.49;72.96;97461.28;1691215;84;25376;-82
2022/03/29 11:20:04;;;;;;;;;;;;;;;13.53;73.12;97458.20;1692193;84;20345;-83
2022/03/29 11:22:34;;;;;;;;;;;;;;;13.61;73.31;97467.49;1659699;84;24825;-83
2022/03/29 11:25:02;;;;;;;;;;;;;;;13.68;73.37;97467.24;1659295;85;22176;-83
2022/03/29 11:27:31;;;;;;;;;;;;;;;13.73;73.46;97468.94;1663733;85;26811;-83
2022/03/29 11:29:58;;;;;;;;;;;;;;;13.77;73.52;97459.76;1660419;85;24611;-82
2022/03/29 11:32:24;;;;;;;;;;;;;;;13.74;73.41;97460.07;1654004;85;20178;-82
2022/03/29 11:34:59;;;;;;;;;;;;;;;13.68;73.21;97459.84;1647825;85;24738;-82
2022/03/29 11:37:30;;;;;;;;;;;;;;;13.68;73.13;97449.33;1652353;85;22185;-82
2022/03/29 11:39:58;;;;;;;;;;;;;;;13.70;73.12;97443.41;1654607;85;26144;-82
2022/03/29 11:42:24;;;;;;;;;;;;;;;13.67;72.99;97440.61;1660549;85;24136;-83
2022/03/29 11:44:51;;;;;;;;;;;;;;;13.68;72.98;97441.44;1653078;85;20215;-83
2022/03/29 11:47:18;;;;;;;;;;;;;;;13.71;73.02;97426.66;1654764;85;24776;-82
2022/03/29 11:49:49;;;;;;;;;;;;;;;13.83;73.18;97431.55;1650737;85;22153;-82
2022/03/29 11:52:16;;;;;;;;;;;;;;;13.88;73.29;97425.82;1664397;84;26219;-82
2022/03/29 11:54:47;;;;;;;;;;;;;;;13.92;73.32;97425.84;1658123;85;25171;-82
2022/03/29 11:57:17;;;;;;;;;;;;;;;13.91;73.26;97421.56;1658910;85;20281;-83
2022/03/29 11:59:43;;;;;;;;;;;;;;;13.97;73.39;97417.49;1655659;85;24769;-82
2022/03/29 12:02:09;;;;;;;;;;;;;;;13.96;73.41;97421.95;1661740;85;21893;-83
2022/03/29 12:04:39;;;;;;;;;;;;;;;13.96;73.33;97414.55;1669536;85;25970;-83
2022/03/29 12:07:05;;;;;;;;;;;;;;;13.99;73.33;97415.06;1660944;85;24416;-84
2022/03/29 12:09:31;;;;;;;;;;;;;;;14.00;73.42;97414.09;1650301;85;20266;-83
2022/03/29 12:12:00;;;;;;;;;;;;;;;13.99;73.35;97408.97;1659223;85;24828;-83
2022/03/29 12:14:27;;;;;;;;;;;;;;;13.99;73.33;97402.39;1649809;85;22250;-83
2022/03/29 12:17:03;;;;;;;;;;;;;;;14.02;73.32;97399.47;1654976;85;26076;-83
2022/03/29 12:19:32;;;;;;;;;;;;;;;13.97;73.12;97397.28;1659024;85;24518;-84
2022/03/29 12:22:00;;;;;;;;;;;;;;;13.94;72.97;97392.83;1672838;84;20951;-83
2022/03/29 12:24:28;;;;;;;;;;;;;;;13.98;73.00;97394.16;1693465;84;24808;-83
2022/03/29 12:26:56;;;;;;;;;;;;;;;14.02;73.03;97384.48;1691705;82;21785;-82
2022/03/29 12:29:24;;;;;;;;;;;;;;;14.06;73.03;97377.13;1691703;82;25938;-83
2022/03/29 12:31:50;;;;;;;;;;;;;;;14.06;73.00;97375.81;1694155;84;24520;-83
2022/03/29 12:34:21;;;;;;;;;;;;;;;14.05;72.93;97367.09;1691349;84;20244;-82
2022/03/29 12:36:55;;;;;;;;;;;;;;;14.11;72.94;97366.97;1693164;84;24828;-83
2022/03/29 12:39:22;;;;;;;;;;;;;;;14.09;72.75;97361.02;1691597;84;22064;-83
2022/03/29 12:41:51;;;;;;;;;;;;;;;14.15;72.82;97361.23;1691845;84;25863;-83
2022/03/29 12:44:34;;;;;;;;;;;;;;;14.24;72.90;97358.14;1697166;84;24520;-83
2022/03/29 12:47:04;;;;;;;;;;;;;;;14.30;72.85;97353.58;1694623;84;20312;-83
2022/03/29 12:49:30;;;;;;;;;;;;;;;14.32;72.74;97342.41;1695461;84;25575;-83
2022/03/29 12:51:57;;;;;;;;;;;;;;;14.30;72.56;97337.78;1695188;84;22658;-83
2022/03/29 12:54:37;;;;;;;;;;;;;;;14.29;72.43;97325.63;1697954;84;26223;-84
2022/03/29 12:57:05;;;;;;;;;;;;;;;14.35;72.42;97327.61;1695812;84;24503;-83
2022/03/29 12:59:34;;;;;;;;;;;;;;;14.36;72.32;97326.63;1699863;83;20190;-83